Time;durP1;ratioP1;P1;durP2;ratioP2;P2;SDS_P1;SDS_P2;PMS_P1;PMS_P2;Temp;Humidity;BMP_temperature;BMP_pressure;BME280_temperature;BME280_humidity;BME280_pressure;Samples;Min_cycle;Max_cycle;Signal;HPM_P1;HPM_P2
2021/12/29 00:00:38;;;;;;;12.27;8.20;;;5.20;92.80;;;;;;5090787;28;20523;-72
2021/12/29 00:03:06;;;;;;;16.15;8.88;;;5.10;92.90;;;;;;5092619;28;20474;-72
2021/12/29 00:05:36;;;;;;;17.85;9.00;;;5.00;92.90;;;;;;5075011;28;20040;-73
2021/12/29 00:08:05;;;;;;;14.50;8.80;;;4.90;92.90;;;;;;5091472;28;20055;-74
2021/12/29 00:10:34;;;;;;;17.50;9.35;;;4.80;92.90;;;;;;5085447;28;20601;-74
2021/12/29 00:13:04;;;;;;;18.42;9.65;;;4.80;93.00;;;;;;5054850;28;20048;-74
2021/12/29 00:15:33;;;;;;;14.70;9.80;;;4.60;93.20;;;;;;5086540;28;20040;-73
2021/12/29 00:18:01;;;;;;;18.90;10.35;;;4.60;93.40;;;;;;5093122;28;20032;-73
2021/12/29 00:20:31;;;;;;;19.52;10.65;;;4.60;93.50;;;;;;5090632;28;20051;-72
2021/12/29 00:23:04;;;;;;;19.42;10.68;;;4.50;93.50;;;;;;5092608;28;20051;-73
2021/12/29 00:25:38;;;;;;;16.25;10.98;;;4.50;93.60;;;;;;5071509;28;20048;-74
2021/12/29 00:28:06;;;;;;;19.80;11.05;;;4.40;93.50;;;;;;5088119;28;20048;-73
2021/12/29 00:30:35;;;;;;;23.67;11.00;;;4.30;93.50;;;;;;5091148;28;20052;-72
2021/12/29 00:33:32;;;;;;;20.25;11.57;;;4.30;93.50;;;;;;5077916;28;20063;-72
2021/12/29 00:36:23;;;;;;;18.70;10.93;;;4.30;93.50;;;;;;5090644;28;20035;-73
2021/12/29 00:39:18;;;;;;;22.08;11.98;;;4.20;93.80;;;;;;5064349;28;20044;-73
2021/12/29 00:42:26;;;;;;;23.98;11.48;;;4.20;93.80;;;;;;5028598;28;20442;-73
2021/12/29 00:45:27;;;;;;;20.25;12.40;;;4.10;93.90;;;;;;4989109;28;20494;-72
2021/12/29 00:47:55;;;;;;;27.15;12.07;;;4.10;94.00;;;;;;4987609;28;20485;-73
2021/12/29 00:50:23;;;;;;;25.95;13.23;;;4.10;94.10;;;;;;4989345;28;20046;-73
2021/12/29 00:52:52;;;;;;;20.48;13.25;;;4.10;94.20;;;;;;4990349;28;20100;-73
2021/12/29 00:55:20;;;;;;;25.40;12.95;;;4.20;94.20;;;;;;4990874;28;20047;-72
2021/12/29 00:57:51;;;;;;;25.70;13.05;;;4.20;94.20;;;;;;4986942;28;20050;-73
2021/12/29 01:00:22;;;;;;;26.02;12.40;;;4.20;94.30;;;;;;4990581;28;20544;-73
2021/12/29 01:02:51;;;;;;;24.35;12.07;;;4.20;94.20;;;;;;4985931;28;20051;-72
2021/12/29 01:05:21;;;;;;;17.15;11.23;;;4.30;94.20;;;;;;4990671;28;20054;-73
2021/12/29 01:07:49;;;;;;;23.95;12.02;;;4.20;94.10;;;;;;4986326;28;20074;-73
2021/12/29 01:10:18;;;;;;;21.42;12.30;;;4.30;94.10;;;;;;4991512;28;20040;-74
2021/12/29 01:12:54;;;;;;;19.80;11.55;;;4.30;94.30;;;;;;4992760;28;20497;-73
2021/12/29 01:15:31;;;;;;;24.27;11.90;;;4.30;94.40;;;;;;5010768;28;20061;-73
2021/12/29 01:18:04;;;;;;;19.42;11.30;;;4.40;94.40;;;;;;5009267;28;20504;-73
2021/12/29 01:20:34;;;;;;;17.05;10.90;;;4.40;94.30;;;;;;5027570;28;20055;-74
2021/12/29 01:23:03;;;;;;;20.27;10.98;;;4.40;94.30;;;;;;5092769;28;20048;-74
2021/12/29 01:25:31;;;;;;;18.55;10.65;;;4.50;94.30;;;;;;5093226;28;20028;-74
2021/12/29 01:28:00;;;;;;;20.00;11.23;;;4.50;94.30;;;;;;5076451;28;20059;-74
2021/12/29 01:30:28;;;;;;;23.38;10.60;;;4.50;94.30;;;;;;5076413;28;20044;-73
2021/12/29 01:32:57;;;;;;;22.40;10.90;;;4.60;94.30;;;;;;5073743;28;20059;-74
2021/12/29 01:35:25;;;;;;;21.05;10.80;;;4.50;94.30;;;;;;5075892;28;20036;-74
2021/12/29 01:37:53;;;;;;;17.08;10.95;;;4.60;94.30;;;;;;5075491;28;20434;-73
2021/12/29 01:40:22;;;;;;;19.38;11.27;;;4.60;94.40;;;;;;5075043;28;20040;-73
2021/12/29 01:42:50;;;;;;;17.48;10.93;;;4.60;94.30;;;;;;5073852;28;20047;-74
2021/12/29 01:45:19;;;;;;;18.17;11.18;;;4.60;94.40;;;;;;5058175;28;20040;-73
2021/12/29 01:47:48;;;;;;;23.58;12.10;;;4.60;94.40;;;;;;5084507;28;20036;-73
2021/12/29 01:50:18;;;;;;;23.30;11.65;;;4.60;94.40;;;;;;5088926;28;20427;-73
2021/12/29 01:52:55;;;;;;;19.58;11.35;;;4.60;94.40;;;;;;5074398;28;20048;-73
2021/12/29 01:55:27;;;;;;;20.77;11.20;;;4.60;94.50;;;;;;5076982;28;20051;-74
2021/12/29 01:57:55;;;;;;;21.25;11.65;;;4.60;94.50;;;;;;5089535;28;20049;-73
2021/12/29 02:00:27;;;;;;;19.80;11.95;;;4.70;94.50;;;;;;5062553;28;20051;-73
2021/12/29 02:02:55;;;;;;;19.33;11.52;;;4.70;94.50;;;;;;5091155;28;20051;-74
2021/12/29 02:05:24;;;;;;;17.60;11.00;;;4.70;94.40;;;;;;5090371;28;20507;-73
2021/12/29 02:07:52;;;;;;;17.25;10.27;;;4.70;94.40;;;;;;5090124;28;20063;-74
2021/12/29 02:10:22;;;;;;;20.15;11.18;;;4.70;94.40;;;;;;5073295;28;20044;-74
2021/12/29 02:12:51;;;;;;;19.27;10.45;;;4.70;94.40;;;;;;5090412;28;20063;-73
2021/12/29 02:15:19;;;;;;;15.52;9.65;;;4.70;94.40;;;;;;5068862;28;20059;-73
2021/12/29 02:17:49;;;;;;;18.70;10.90;;;4.70;94.40;;;;;;5072458;28;20043;-74
2021/12/29 02:20:20;;;;;;;15.50;10.43;;;4.70;94.30;;;;;;5088583;28;20044;-72
2021/12/29 02:22:59;;;;;;;18.70;10.82;;;4.70;94.30;;;;;;5071895;28;20064;-73
2021/12/29 02:25:47;;;;;;;12.73;9.20;;;4.60;94.30;;;;;;5090070;28;20044;-73
2021/12/29 02:28:25;;;;;;;15.15;10.75;;;4.60;94.30;;;;;;5073443;28;20048;-73
2021/12/29 02:30:55;;;;;;;22.77;10.73;;;4.60;94.30;;;;;;5091443;28;20219;-72
2021/12/29 02:33:24;;;;;;;17.60;11.20;;;4.50;94.30;;;;;;5073100;28;20040;-73
2021/12/29 02:35:53;;;;;;;22.02;11.60;;;4.50;94.30;;;;;;5073111;28;20067;-72
2021/12/29 02:38:28;;;;;;;24.02;11.88;;;4.40;94.20;;;;;;5091292;28;20046;-73
2021/12/29 02:41:02;;;;;;;20.60;11.73;;;4.40;94.40;;;;;;5091335;28;20067;-72
2021/12/29 02:43:32;;;;;;;21.30;10.85;;;4.40;94.50;;;;;;5090704;28;20055;-72
2021/12/29 02:46:00;;;;;;;21.55;11.35;;;4.40;94.70;;;;;;5088655;28;20060;-72
2021/12/29 02:48:37;;;;;;;23.65;11.18;;;4.50;94.90;;;;;;5089685;28;20048;-73
2021/12/29 02:51:07;;;;;;;20.25;10.80;;;4.50;95.00;;;;;;5089480;28;20051;-73
2021/12/29 02:53:36;;;;;;;18.95;11.10;;;4.60;95.00;;;;;;5088339;28;20039;-73
2021/12/29 02:56:05;;;;;;;14.70;9.98;;;4.70;95.00;;;;;;5055137;28;20056;-74
2021/12/29 02:58:32;;;;;;;18.75;9.63;;;4.70;94.90;;;;;;5090520;28;20044;-73
2021/12/29 03:01:12;;;;;;;16.40;9.13;;;4.80;94.90;;;;;;5089179;28;20075;-73
2021/12/29 03:03:41;;;;;;;11.88;9.05;;;4.80;94.80;;;;;;5086527;28;20044;-72
2021/12/29 03:06:10;;;;;;;18.05;8.90;;;4.90;94.80;;;;;;5071742;28;20537;-71
2021/12/29 03:08:39;;;;;;;17.73;8.77;;;4.90;94.70;;;;;;5090041;28;20048;-75
2021/12/29 03:11:08;;;;;;;14.63;8.43;;;4.90;94.60;;;;;;5089746;28;20044;-73
2021/12/29 03:13:38;;;;;;;12.48;8.30;;;4.90;94.50;;;;;;5087520;28;20040;-73
2021/12/29 03:16:07;;;;;;;14.65;8.30;;;4.90;94.50;;;;;;5087986;28;20043;-73
2021/12/29 03:18:35;;;;;;;11.43;8.55;;;4.90;94.50;;;;;;5077924;28;20047;-73
2021/12/29 03:21:03;;;;;;;12.23;8.55;;;4.90;94.50;;;;;;5064522;28;20403;-73
2021/12/29 03:23:31;;;;;;;15.30;8.45;;;4.90;94.50;;;;;;5054543;28;20051;-73
2021/12/29 03:25:59;;;;;;;15.00;8.75;;;4.80;94.50;;;;;;5071929;28;20043;-73
2021/12/29 03:28:26;;;;;;;15.35;8.52;;;4.80;94.50;;;;;;5072184;28;20057;-73
2021/12/29 03:30:55;;;;;;;17.10;8.55;;;4.80;94.50;;;;;;5078833;28;20051;-73
2021/12/29 03:33:26;;;;;;;11.40;8.30;;;4.80;94.60;;;;;;5082793;28;20057;-72
2021/12/29 03:36:01;;;;;;;13.98;8.25;;;4.80;94.60;;;;;;5091802;28;20044;-72
2021/12/29 03:38:33;;;;;;;15.70;8.45;;;4.80;94.60;;;;;;5076653;28;20048;-72
2021/12/29 03:41:02;;;;;;;12.00;8.50;;;4.80;94.60;;;;;;5071680;28;20048;-72
2021/12/29 03:43:30;;;;;;;16.40;8.40;;;4.90;94.60;;;;;;5073674;28;20052;-72
2021/12/29 03:45:58;;;;;;;12.25;8.45;;;4.90;94.60;;;;;;5072102;28;20044;-72
2021/12/29 03:48:27;;;;;;;16.13;10.10;;;5.00;94.70;;;;;;5080715;28;20040;-72
2021/12/29 03:50:56;;;;;;;15.35;8.98;;;4.90;94.60;;;;;;5061311;28;20496;-73
2021/12/29 03:53:24;;;;;;;11.93;8.57;;;5.00;94.60;;;;;;5073766;28;20064;-73
2021/12/29 03:55:52;;;;;;;17.45;8.88;;;5.00;94.60;;;;;;5087507;28;20052;-72
2021/12/29 03:58:22;;;;;;;20.65;8.43;;;5.00;94.60;;;;;;5074007;28;20039;-72
2021/12/29 04:00:53;;;;;;;20.35;9.10;;;5.00;94.50;;;;;;5074494;28;20048;-73
2021/12/29 04:03:20;;;;;;;14.50;8.80;;;5.00;94.50;;;;;;5072796;28;20044;-73
2021/12/29 04:05:48;;;;;;;13.30;8.77;;;5.10;94.60;;;;;;5057016;28;20040;-73
2021/12/29 04:08:16;;;;;;;14.63;8.73;;;5.10;94.50;;;;;;5078851;28;20139;-72
2021/12/29 04:10:44;;;;;;;17.15;8.48;;;5.10;94.50;;;;;;5073735;28;20405;-73
2021/12/29 04:13:12;;;;;;;14.05;9.23;;;5.10;94.50;;;;;;5089345;28;20044;-72
2021/12/29 04:15:40;;;;;;;14.55;8.80;;;5.10;94.60;;;;;;5071359;28;20506;-72
2021/12/29 04:18:15;;;;;;;17.25;9.07;;;5.20;94.60;;;;;;5091094;28;20407;-73
2021/12/29 04:20:57;;;;;;;13.63;9.60;;;5.20;94.60;;;;;;5078697;28;20048;-73
2021/12/29 04:23:28;;;;;;;17.77;8.65;;;5.30;94.60;;;;;;5053445;28;20048;-73
2021/12/29 04:25:58;;;;;;;17.52;9.68;;;5.30;94.60;;;;;;5090774;28;20040;-73
2021/12/29 04:28:26;;;;;;;12.65;8.68;;;5.30;94.60;;;;;;5071286;28;20044;-73
2021/12/29 04:31:05;;;;;;;14.45;8.75;;;5.40;94.60;;;;;;5091948;28;20483;-73
2021/12/29 04:33:36;;;;;;;14.35;8.60;;;5.40;94.50;;;;;;5058077;28;20053;-74
2021/12/29 04:36:04;;;;;;;17.10;9.25;;;5.50;94.50;;;;;;5070083;28;20044;-73
2021/12/29 04:38:34;;;;;;;19.25;9.95;;;5.50;94.50;;;;;;5064750;28;20406;-73
2021/12/29 04:41:03;;;;;;;13.60;8.93;;;5.60;94.50;;;;;;5092409;28;20079;-73
2021/12/29 04:43:31;;;;;;;12.88;8.73;;;5.60;94.50;;;;;;5088005;28;20048;-73
2021/12/29 04:45:58;;;;;;;13.77;8.55;;;5.70;94.40;;;;;;5063834;28;20044;-73
2021/12/29 04:48:28;;;;;;;20.80;9.15;;;5.70;94.40;;;;;;5094294;28;20499;-74
2021/12/29 04:51:12;;;;;;;14.55;8.68;;;5.70;94.40;;;;;;5091580;28;20044;-73
2021/12/29 04:53:40;;;;;;;12.63;8.15;;;5.70;94.30;;;;;;5064225;28;20047;-73
2021/12/29 04:56:07;;;;;;;13.63;8.52;;;5.80;94.30;;;;;;5085547;28;20190;-73
2021/12/29 04:58:35;;;;;;;14.65;9.25;;;5.80;94.30;;;;;;5085480;28;20055;-73
2021/12/29 05:01:03;;;;;;;14.15;8.95;;;5.80;94.20;;;;;;5060854;28;20040;-73
2021/12/29 05:03:31;;;;;;;11.10;8.55;;;5.80;94.30;;;;;;5073968;28;20104;-73
2021/12/29 05:08:32;;;;;;;13.55;9.00;;;5.90;94.20;;;;;;5074339;28;20047;-73
2021/12/29 05:11:04;;;;;;;13.35;8.50;;;5.90;94.20;;;;;;5073324;28;20131;-73
2021/12/29 05:13:34;;;;;;;11.85;8.93;;;6.00;94.20;;;;;;5092780;28;20054;-73
2021/12/29 05:16:02;;;;;;;15.77;9.00;;;6.00;94.20;;;;;;5090880;28;20044;-73
2021/12/29 05:18:33;;;;;;;13.32;8.00;;;6.00;94.10;;;;;;5074179;28;20036;-72
2021/12/29 05:21:03;;;;;;;19.02;9.15;;;6.00;94.10;;;;;;5074158;28;20063;-73
2021/12/29 05:23:30;;;;;;;12.90;9.18;;;6.00;94.10;;;;;;5091763;28;20044;-73
2021/12/29 05:25:58;;;;;;;15.07;8.85;;;6.00;94.10;;;;;;5093938;28;20376;-73
2021/12/29 05:28:26;;;;;;;22.13;9.13;;;6.00;94.10;;;;;;5089944;28;20059;-73
2021/12/29 05:30:54;;;;;;;17.20;9.10;;;6.10;94.10;;;;;;5075834;28;20049;-73
2021/12/29 05:33:22;;;;;;;15.52;8.52;;;6.10;94.10;;;;;;5076606;28;20064;-73
2021/12/29 05:35:50;;;;;;;15.75;8.90;;;6.10;94.10;;;;;;5072702;28;20518;-73
2021/12/29 05:38:18;;;;;;;18.95;9.27;;;6.10;94.10;;;;;;5088262;28;20395;-73
2021/12/29 05:40:46;;;;;;;17.02;9.45;;;6.20;94.10;;;;;;5090741;28;20036;-73
2021/12/29 05:43:13;;;;;;;16.55;9.95;;;6.20;94.10;;;;;;5080748;28;20044;-73
2021/12/29 05:45:42;;;;;;;16.38;9.43;;;6.20;94.00;;;;;;5092672;28;20067;-73
2021/12/29 05:48:10;;;;;;;19.48;9.85;;;6.20;94.00;;;;;;5089090;28;20435;-73
2021/12/29 05:50:38;;;;;;;16.52;10.00;;;6.20;94.00;;;;;;5076727;28;20047;-73
2021/12/29 05:53:06;;;;;;;18.98;10.10;;;6.30;94.00;;;;;;5075399;28;20044;-74
2021/12/29 05:55:33;;;;;;;20.52;11.05;;;6.30;94.00;;;;;;5091180;28;20047;-73
2021/12/29 05:58:01;;;;;;;22.42;11.48;;;6.30;94.00;;;;;;5093264;28;20495;-73
2021/12/29 06:00:29;;;;;;;21.95;11.27;;;6.30;94.00;;;;;;5091229;28;20411;-73
2021/12/29 06:02:57;;;;;;;27.10;12.40;;;6.30;94.00;;;;;;5075686;28;20051;-72
2021/12/29 06:05:25;;;;;;;22.60;12.30;;;6.30;94.00;;;;;;5055706;28;20040;-72
2021/12/29 06:07:52;;;;;;;32.40;13.30;;;6.30;94.00;;;;;;5074365;28;20483;-71
2021/12/29 06:10:20;;;;;;;36.47;14.50;;;6.40;94.00;;;;;;5071915;28;20052;-70
2021/12/29 06:12:48;;;;;;;42.78;15.23;;;6.40;94.00;;;;;;5078341;28;20392;-69
2021/12/29 06:15:16;;;;;;;37.35;15.82;;;6.40;94.00;;;;;;5080003;28;20032;-69
2021/12/29 06:17:44;;;;;;;44.05;16.27;;;6.40;94.00;;;;;;5072872;28;20522;-69
2021/12/29 06:20:12;;;;;;;39.80;15.98;;;6.40;94.10;;;;;;5072376;28;20056;-69
2021/12/29 06:22:42;;;;;;;48.35;17.85;;;6.50;94.10;;;;;;5073533;28;20067;-69
2021/12/29 06:25:12;;;;;;;42.22;16.90;;;6.50;94.10;;;;;;5091346;28;20052;-69
2021/12/29 06:27:40;;;;;;;51.60;17.55;;;6.60;94.20;;;;;;5076003;28;20051;-69
2021/12/29 06:30:10;;;;;;;60.67;19.30;;;6.60;94.20;;;;;;5072603;28;20044;-69
2021/12/29 06:32:39;;;;;;;46.92;19.40;;;6.70;94.20;;;;;;5086083;28;20036;-69
2021/12/29 06:35:09;;;;;;;57.35;19.58;;;6.70;94.20;;;;;;5073442;28;20044;-68
2021/12/29 06:37:37;;;;;;;61.80;21.05;;;6.70;94.30;;;;;;5081342;28;20052;-69
2021/12/29 06:40:05;;;;;;;64.60;21.05;;;6.70;94.30;;;;;;5079255;28;20044;-69
2021/12/29 06:42:33;;;;;;;67.50;21.08;;;6.80;94.30;;;;;;5081569;28;20522;-70
2021/12/29 06:45:01;;;;;;;56.25;20.55;;;6.80;94.30;;;;;;5085887;28;20372;-69
2021/12/29 06:47:29;;;;;;;59.65;22.27;;;6.80;94.30;;;;;;5080930;28;20055;-69
2021/12/29 06:49:56;;;;;;;53.78;19.70;;;6.80;94.30;;;;;;5092001;28;20058;-69
2021/12/29 06:52:24;;;;;;;69.78;22.58;;;6.90;94.40;;;;;;5080451;28;20041;-69
2021/12/29 06:54:51;;;;;;;56.10;20.50;;;6.90;94.40;;;;;;5073747;28;20491;-69
2021/12/29 06:57:19;;;;;;;47.92;20.25;;;6.90;94.40;;;;;;5080223;28;20549;-69
2021/12/29 06:59:47;;;;;;;53.25;19.98;;;6.90;94.40;;;;;;5089803;28;20434;-69
2021/12/29 07:02:15;;;;;;;52.60;19.50;;;6.90;94.40;;;;;;5070219;28;20407;-69
2021/12/29 07:04:44;;;;;;;52.35;21.33;;;6.90;94.40;;;;;;5076551;28;20414;-69
2021/12/29 07:07:11;;;;;;;44.83;20.23;;;7.00;94.50;;;;;;5054409;28;20060;-69
2021/12/29 07:09:39;;;;;;;52.38;20.23;;;7.00;94.50;;;;;;5080026;28;20399;-68
2021/12/29 07:12:07;;;;;;;51.60;20.65;;;7.00;94.50;;;;;;5083654;28;20410;-68
2021/12/29 07:14:40;;;;;;;43.55;18.73;;;7.00;94.50;;;;;;5091761;28;20048;-68
2021/12/29 07:17:07;;;;;;;47.22;20.05;;;7.00;94.60;;;;;;5091758;28;20517;-69
2021/12/29 07:19:35;;;;;;;47.85;19.15;;;7.00;94.60;;;;;;5074275;28;20055;-69
2021/12/29 07:22:04;;;;;;;46.25;18.13;;;7.10;94.60;;;;;;5075755;28;20045;-69
2021/12/29 07:24:32;;;;;;;40.75;18.77;;;7.10;94.60;;;;;;5078820;28;20059;-69
2021/12/29 07:27:00;;;;;;;46.38;17.40;;;7.10;94.60;;;;;;5085335;28;20071;-69
2021/12/29 07:29:28;;;;;;;39.92;17.83;;;7.10;94.60;;;;;;5091807;28;20059;-69
2021/12/29 07:31:58;;;;;;;51.25;18.35;;;7.20;94.70;;;;;;5090339;28;20403;-69
2021/12/29 07:34:26;;;;;;;41.50;16.90;;;7.20;94.70;;;;;;5083684;28;20048;-70
2021/12/29 07:36:54;;;;;;;37.63;15.98;;;7.20;94.70;;;;;;5081971;28;20211;-68
2021/12/29 07:39:22;;;;;;;35.20;15.27;;;7.20;94.70;;;;;;5054121;28;20411;-68
2021/12/29 07:41:51;;;;;;;34.17;14.90;;;7.20;94.70;;;;;;5063718;28;20123;-68
2021/12/29 07:44:22;;;;;;;43.33;15.23;;;7.30;94.70;;;;;;5075844;28;20044;-69
2021/12/29 07:46:53;;;;;;;36.58;15.50;;;7.20;94.70;;;;;;5085189;28;20055;-69
2021/12/29 07:49:22;;;;;;;33.47;14.15;;;7.30;94.70;;;;;;5074065;28;20438;-69
2021/12/29 07:51:52;;;;;;;33.42;13.93;;;7.30;94.70;;;;;;5084310;28;20040;-69
2021/12/29 07:54:21;;;;;;;41.00;15.48;;;7.30;94.70;;;;;;5088580;28;20402;-69
2021/12/29 07:56:49;;;;;;;29.88;14.02;;;7.30;94.70;;;;;;5089005;28;20054;-69
2021/12/29 07:59:18;;;;;;;30.13;14.38;;;7.30;94.70;;;;;;5079310;28;20067;-69
2021/12/29 08:01:48;;;;;;;30.42;13.30;;;7.30;94.70;;;;;;5091510;28;20483;-69
2021/12/29 08:04:19;;;;;;;31.85;13.38;;;7.30;94.70;;;;;;5091271;28;20059;-70
2021/12/29 08:06:47;;;;;;;34.38;13.13;;;7.30;94.70;;;;;;5076824;28;20056;-69
2021/12/29 08:09:15;;;;;;;28.45;12.85;;;7.40;94.70;;;;;;5075340;28;20498;-70
2021/12/29 08:11:43;;;;;;;34.47;13.10;;;7.40;94.70;;;;;;5078293;28;20059;-70
2021/12/29 08:14:11;;;;;;;33.05;13.15;;;7.40;94.70;;;;;;5093697;28;20406;-69
2021/12/29 08:16:38;;;;;;;32.65;14.13;;;7.40;94.70;;;;;;5094945;28;20051;-70
2021/12/29 08:19:06;;;;;;;28.25;12.13;;;7.50;94.80;;;;;;5091901;28;20043;-70
2021/12/29 08:21:34;;;;;;;30.20;13.85;;;7.50;94.80;;;;;;5077091;28;20056;-70
2021/12/29 08:24:01;;;;;;;34.35;16.40;;;7.50;94.70;;;;;;5091786;28;20040;-70
2021/12/29 08:26:29;;;;;;;46.33;16.85;;;7.50;94.80;;;;;;5095052;28;20043;-70
2021/12/29 08:28:58;;;;;;;37.17;15.07;;;7.50;94.80;;;;;;5095387;28;20372;-70
2021/12/29 08:31:26;;;;;;;33.85;15.63;;;7.50;94.80;;;;;;5090318;28;20048;-70
2021/12/29 08:33:54;;;;;;;39.25;15.48;;;7.50;94.70;;;;;;5075133;28;20419;-70
2021/12/29 08:36:23;;;;;;;39.75;15.82;;;7.50;94.80;;;;;;5076234;28;20048;-70
2021/12/29 08:38:51;;;;;;;32.13;15.02;;;7.50;94.80;;;;;;5094510;28;20469;-70
2021/12/29 08:41:19;;;;;;;28.13;13.90;;;7.50;94.80;;;;;;5093721;28;20036;-70
2021/12/29 08:43:47;;;;;;;26.33;13.43;;;7.60;94.80;;;;;;5093544;28;20047;-69
2021/12/29 08:46:17;;;;;;;27.75;13.43;;;7.50;94.80;;;;;;5084952;28;20060;-69
2021/12/29 08:48:46;;;;;;;29.05;13.40;;;7.60;94.80;;;;;;5094171;28;20047;-69
2021/12/29 08:51:15;;;;;;;28.90;13.40;;;7.50;94.80;;;;;;5092743;28;20036;-69
2021/12/29 08:53:45;;;;;;;23.17;11.98;;;7.60;94.80;;;;;;5089995;28;20047;-68
2021/12/29 08:56:16;;;;;;;22.67;11.65;;;7.60;94.80;;;;;;5092719;28;20051;-68
2021/12/29 08:58:44;;;;;;;20.58;10.93;;;7.60;94.90;;;;;;5092656;28;20406;-68
2021/12/29 09:01:13;;;;;;;18.05;9.63;;;7.60;94.90;;;;;;5069858;28;20047;-68
2021/12/29 09:03:41;;;;;;;20.48;9.63;;;7.70;94.90;;;;;;5078419;28;20036;-68
2021/12/29 09:06:10;;;;;;;16.25;8.60;;;7.70;94.90;;;;;;5094144;28;20047;-67
2021/12/29 09:08:38;;;;;;;14.60;8.68;;;7.70;94.90;;;;;;5067109;28;20037;-68
2021/12/29 09:11:06;;;;;;;14.02;8.75;;;7.70;94.90;;;;;;5092413;28;20258;-68
2021/12/29 09:13:34;;;;;;;13.45;8.02;;;7.80;94.90;;;;;;5090554;28;20376;-68
2021/12/29 09:16:03;;;;;;;8.70;7.00;;;7.80;94.90;;;;;;5082824;28;20048;-68
2021/12/29 09:18:33;;;;;;;11.52;6.60;;;7.80;94.90;;;;;;5075272;28;20049;-68
2021/12/29 09:21:10;;;;;;;8.55;6.00;;;7.80;95.00;;;;;;5073984;28;20056;-68
2021/12/29 09:23:39;;;;;;;7.95;6.05;;;7.90;95.00;;;;;;5090256;28;20498;-68
2021/12/29 09:26:09;;;;;;;8.85;6.38;;;7.90;95.00;;;;;;5091799;28;20058;-68
2021/12/29 09:28:37;;;;;;;8.52;5.93;;;8.00;95.00;;;;;;5086285;28;20044;-68
2021/12/29 09:31:05;;;;;;;9.30;6.13;;;8.00;95.00;;;;;;5077763;28;20049;-69
2021/12/29 09:33:33;;;;;;;7.72;5.30;;;8.10;95.00;;;;;;5086675;28;20040;-68
2021/12/29 09:36:02;;;;;;;8.63;6.03;;;8.10;95.00;;;;;;5092337;28;20399;-68
2021/12/29 09:38:35;;;;;;;6.80;5.10;;;8.20;95.10;;;;;;5089657;28;20044;-68
2021/12/29 09:41:05;;;;;;;9.43;5.50;;;8.20;95.10;;;;;;5068272;28;20047;-68
2021/12/29 09:43:34;;;;;;;9.40;5.95;;;8.30;95.10;;;;;;5078292;28;20063;-68
2021/12/29 09:46:02;;;;;;;11.57;6.25;;;8.30;95.00;;;;;;5078022;28;20496;-68
2021/12/29 09:48:29;;;;;;;6.55;4.95;;;8.40;95.00;;;;;;5084381;28;20044;-68
2021/12/29 09:50:57;;;;;;;5.43;4.03;;;8.40;95.00;;;;;;5084563;28;20063;-68
2021/12/29 09:53:25;;;;;;;4.75;4.00;;;8.50;95.00;;;;;;5073465;28;20391;-68
2021/12/29 09:55:53;;;;;;;7.25;4.53;;;8.50;95.00;;;;;;5075097;28;20048;-68
2021/12/29 09:58:20;;;;;;;4.35;3.20;;;8.60;95.00;;;;;;5073510;28;20048;-68
2021/12/29 10:00:54;;;;;;;3.78;3.40;;;8.70;95.00;;;;;;5082244;28;20047;-69
2021/12/29 10:03:24;;;;;;;3.92;3.33;;;8.70;95.00;;;;;;5086950;28;20044;-69
2021/12/29 10:05:56;;;;;;;3.50;2.90;;;8.70;95.00;;;;;;5061120;28;20417;-69
2021/12/29 10:08:34;;;;;;;4.97;2.90;;;8.80;95.00;;;;;;5084487;28;20040;-69
2021/12/29 10:11:11;;;;;;;3.00;2.70;;;8.80;95.00;;;;;;5075351;28;20507;-69
2021/12/29 10:13:41;;;;;;;3.53;2.40;;;8.80;95.00;;;;;;5088795;28;20051;-69
2021/12/29 10:16:13;;;;;;;3.75;2.50;;;8.90;95.00;;;;;;5072520;28;20064;-69
2021/12/29 10:18:43;;;;;;;4.05;2.50;;;8.90;95.00;;;;;;5039463;28;20492;-69
2021/12/29 10:21:15;;;;;;;2.65;2.40;;;9.00;95.00;;;;;;5064162;28;20045;-69
2021/12/29 10:23:46;;;;;;;3.75;2.50;;;9.00;94.90;;;;;;5078427;28;20055;-69
2021/12/29 10:26:38;;;;;;;3.00;2.67;;;9.10;94.90;;;;;;5087824;28;20051;-69
2021/12/29 10:29:12;;;;;;;5.32;2.28;;;9.10;94.90;;;;;;5093000;28;20040;-69
2021/12/29 10:31:58;;;;;;;2.83;2.60;;;9.20;94.90;;;;;;5080758;28;20412;-69
2021/12/29 10:34:29;;;;;;;2.97;2.67;;;9.20;94.90;;;;;;5092111;28;20036;-70
2021/12/29 10:37:04;;;;;;;2.80;2.60;;;9.30;94.90;;;;;;5092436;28;20044;-69
2021/12/29 10:39:35;;;;;;;4.20;2.78;;;9.30;94.90;;;;;;5072166;28;20048;-69
2021/12/29 10:42:09;;;;;;;5.88;3.00;;;9.30;94.80;;;;;;5076016;28;20052;-69
2021/12/29 10:44:56;;;;;;;3.28;2.70;;;9.30;94.80;;;;;;5092304;28;20063;-69
2021/12/29 10:47:33;;;;;;;3.42;3.13;;;9.40;94.80;;;;;;5089877;28;20043;-69
2021/12/29 10:50:13;;;;;;;4.65;2.95;;;9.40;94.80;;;;;;5091713;28;20166;-69
2021/12/29 10:52:54;;;;;;;6.22;3.50;;;9.50;94.80;;;;;;5091553;28;20043;-69
2021/12/29 10:55:31;;;;;;;5.70;2.92;;;9.50;94.80;;;;;;5088014;28;20066;-69
2021/12/29 10:58:08;;;;;;;4.22;2.70;;;9.50;94.80;;;;;;5080469;28;20043;-70
2021/12/29 11:01:03;;;;;;;3.15;2.80;;;9.60;94.80;;;;;;5090848;28;20044;-69
2021/12/29 11:03:35;;;;;;;3.42;3.13;;;9.60;94.80;;;;;;5085805;28;20036;-69
2021/12/29 11:06:04;;;;;;;3.58;3.28;;;9.70;94.80;;;;;;5087499;28;20044;-69
2021/12/29 11:08:48;;;;;;;4.45;3.35;;;9.80;94.80;;;;;;5085353;28;20040;-69
2021/12/29 11:11:18;;;;;;;4.97;3.72;;;9.80;94.80;;;;;;5081715;28;20044;-69
2021/12/29 11:13:46;;;;;;;3.97;3.60;;;9.80;94.80;;;;;;5078095;28;20492;-71
2021/12/29 11:16:18;;;;;;;4.60;3.70;;;10.00;94.80;;;;;;5084473;28;20060;-76
2021/12/29 11:18:51;;;;;;;4.93;3.83;;;10.00;94.70;;;;;;5082384;28;20051;-74
2021/12/29 11:21:28;;;;;;;4.75;3.75;;;10.00;94.70;;;;;;5105413;28;20036;-72
2021/12/29 11:24:09;;;;;;;5.10;3.78;;;10.10;94.70;;;;;;5078233;28;20525;-72
2021/12/29 11:26:37;;;;;;;4.90;3.38;;;10.10;94.70;;;;;;5086935;28;20043;-72
2021/12/29 11:29:14;;;;;;;4.00;3.50;;;10.20;94.70;;;;;;5071673;28;20518;-71
2021/12/29 11:31:46;;;;;;;4.57;3.03;;;10.20;94.60;;;;;;5071579;28;20040;-71
2021/12/29 11:34:18;;;;;;;3.92;3.10;;;10.30;94.60;;;;;;5070498;28;20051;-70
2021/12/29 11:37:03;;;;;;;6.32;3.00;;;10.30;94.50;;;;;;5071303;28;20063;-70
2021/12/29 11:39:33;;;;;;;3.83;2.75;;;10.30;94.60;;;;;;5091964;28;20475;-70
2021/12/29 11:42:01;;;;;;;4.05;2.30;;;10.40;94.60;;;;;;5095614;28;20494;-70
2021/12/29 11:44:29;;;;;;;2.13;1.92;;;10.50;94.60;;;;;;5080398;28;20064;-70
2021/12/29 11:46:57;;;;;;;2.08;1.95;;;10.70;94.70;;;;;;5093893;28;20077;-70
2021/12/29 11:49:25;;;;;;;1.50;1.35;;;10.80;94.70;;;;;;5080739;28;20044;-71
2021/12/29 11:52:02;;;;;;;3.83;1.48;;;11.00;94.70;;;;;;5079920;28;20052;-71
2021/12/29 11:55:05;;;;;;;6.53;1.40;;;11.20;94.80;;;;;;5092045;28;20062;-71
2021/12/29 11:57:35;;;;;;;4.22;1.15;;;11.40;94.80;;;;;;5088782;28;20067;-71
2021/12/29 12:00:23;;;;;;;8.45;1.33;;;11.80;94.60;;;;;;5080643;28;20044;-71
2021/12/29 12:03:04;;;;;;;6.38;1.05;;;12.00;94.40;;;;;;5079147;28;20044;-70
2021/12/29 12:05:38;;;;;;;13.25;1.70;;;12.20;94.10;;;;;;5084737;28;20049;-69
2021/12/29 12:08:13;;;;;;;9.60;1.90;;;12.30;93.70;;;;;;5069488;28;20310;-71
2021/12/29 12:10:42;;;;;;;10.48;1.83;;;12.50;93.30;;;;;;5089007;28;20040;-70
2021/12/29 12:13:23;;;;;;;15.70;2.60;;;12.70;92.90;;;;;;5090643;28;20044;-70
2021/12/29 12:16:09;;;;;;;12.40;2.60;;;12.80;92.10;;;;;;5081288;28;20511;-71
2021/12/29 12:18:52;;;;;;;20.20;3.33;;;13.00;91.50;;;;;;5080021;28;20063;-70
2021/12/29 12:21:33;;;;;;;20.75;2.90;;;13.20;91.00;;;;;;5084393;28;20051;-70
2021/12/29 12:24:34;;;;;;;22.05;3.08;;;13.30;90.30;;;;;;5083804;28;20044;-71
2021/12/29 12:27:08;;;;;;;16.35;2.50;;;13.30;89.60;;;;;;5039231;28;20406;-71
2021/12/29 12:29:39;;;;;;;21.02;4.30;;;13.40;89.10;;;;;;5089925;28;20055;-71
2021/12/29 12:32:17;;;;;;;30.02;5.25;;;13.40;88.80;;;;;;5087012;28;20047;-72
2021/12/29 12:35:06;;;;;;;25.20;3.53;;;13.40;88.60;;;;;;5093584;28;20513;-76
2021/12/29 12:37:48;;;;;;;21.77;4.78;;;13.40;88.50;;;;;;5092353;28;20052;-71
2021/12/29 12:40:28;;;;;;;21.15;3.15;;;13.40;88.20;;;;;;5081121;28;20041;-72
2021/12/29 12:43:06;;;;;;;25.10;3.40;;;13.40;87.80;;;;;;5074184;28;20053;-72
2021/12/29 12:45:36;;;;;;;13.68;2.63;;;13.40;87.80;;;;;;5075258;28;20050;-72
2021/12/29 12:48:22;;;;;;;26.80;4.40;;;13.40;87.80;;;;;;5074131;28;20059;-72
2021/12/29 12:50:51;;;;;;;28.23;4.82;;;13.40;87.60;;;;;;5073392;28;20040;-72
2021/12/29 12:53:36;;;;;;;30.48;4.15;;;13.30;87.90;;;;;;5073881;28;20067;-72
2021/12/29 12:56:14;;;;;;;22.85;4.10;;;13.30;87.90;;;;;;5075401;28;20060;-72
2021/12/29 12:58:47;;;;;;;21.05;4.10;;;13.30;87.80;;;;;;5074342;28;20052;-74
2021/12/29 13:01:19;;;;;;;30.65;5.07;;;13.30;87.80;;;;;;5092688;28;20036;-74
2021/12/29 13:03:48;;;;;;;27.90;4.78;;;13.30;87.80;;;;;;5090954;28;20810;-72
2021/12/29 13:06:23;;;;;;;21.73;3.15;;;13.20;87.70;;;;;;5090634;28;20044;-72